Time;durP1;ratioP1;P1;durP2;ratioP2;P2;SDS_P1;SDS_P2;PMS_P1;PMS_P2;Temp;Humidity;BMP_temperature;BMP_pressure;BME280_temperature;BME280_humidity;BME280_pressure;Samples;Min_cycle;Max_cycle;Signal;HPM_P1;HPM_P2
2022/04/27 00:00:03;;;;;;;16.37;8.45;;;;;;;;;;4451932;32;19998;-72
2022/04/27 00:02:30;;;;;;;17.50;9.48;;;;;;;;;;4438128;32;20052;-72
2022/04/27 00:04:55;;;;;;;13.65;8.75;;;;;;;;;;4452374;32;20336;-72
2022/04/27 00:07:21;;;;;;;;;;;;;;;;;;4437706;32;20021;-73
2022/04/27 00:09:46;;;;;;;13.55;8.80;;;;;;;;;;4452508;32;19942;-72
2022/04/27 00:12:11;;;;;;;;;;;;;;;;;;4450764;32;20044;-72
2022/04/27 00:14:36;;;;;;;14.00;8.77;;;;;;;;;;4437637;32;19940;-73
2022/04/27 00:17:01;;;;;;;;;;;;;;;;;;4454881;32;20113;-73
2022/04/27 00:19:27;;;;;;;14.18;8.57;;;;;;;;;;4454857;32;19944;-72
2022/04/27 00:21:52;;;;;;;;;;;;;;;;;;4453540;32;20332;-73
2022/04/27 00:24:17;;;;;;;14.40;8.93;;;;;;;;;;4454843;32;19937;-73
2022/04/27 00:26:42;;;;;;;;;;;;;;;;;;4454736;32;20147;-73
2022/04/27 00:29:08;;;;;;;10.27;8.18;;;;;;;;;;4440335;32;19940;-73
2022/04/27 00:31:33;;;;;;;;;;;;;;;;;;4452955;32;20179;-73
2022/04/27 00:34:00;;;;;;;16.23;9.68;;;;;;;;;;4454418;32;19940;-73
2022/04/27 00:36:25;;;;;;;16.75;9.73;;;;;;;;;;4440490;32;20134;-73
2022/04/27 00:38:51;;;;;;;;;;;;;;;;;;4470463;26;20049;-75
2022/04/27 00:41:16;;;;;;;13.98;9.38;;;;;;;;;;4453644;32;19944;-76
2022/04/27 00:43:41;;;;;;;;;;;;;;;;;;4453213;32;20090;-76
2022/04/27 00:46:09;;;;;;;20.60;10.13;;;;;;;;;;4452579;32;19964;-76
2022/04/27 00:48:36;;;;;;;16.87;10.50;;;;;;;;;;4429439;32;20026;-76
2022/04/27 00:51:02;;;;;;;17.60;11.63;;;;;;;;;;4420609;32;20049;-76
2022/04/27 00:53:27;;;;;;;;;;;;;;;;;;4422508;32;20434;-76
2022/04/27 00:55:53;;;;;;;14.13;10.20;;;;;;;;;;4421927;32;19949;-76
2022/04/27 00:58:18;;;;;;;;;;;;;;;;;;4422793;32;20072;-76
2022/04/27 01:00:44;;;;;;;21.08;10.68;;;;;;;;;;4422344;32;20278;-76
2022/04/27 01:03:09;;;;;;;;;;;;;;;;;;4432703;32;20052;-76
2022/04/27 01:05:34;;;;;;;17.48;10.98;;;;;;;;;;4437715;32;19940;-77
2022/04/27 01:08:00;;;;;;;;;;;;;;;;;;4438012;32;20148;-75
2022/04/27 01:10:27;;;;;;;22.65;12.00;;;;;;;;;;4437536;32;19937;-75
2022/04/27 01:12:53;;;;;;;24.75;11.52;;;;;;;;;;4436809;32;20085;-75
2022/04/27 01:15:32;;;;;;;21.23;11.48;;;;;;;;;;4436759;32;20025;-75
2022/04/27 01:17:57;;;;;;;22.55;10.85;;;;;;;;;;4436129;32;20419;-75
2022/04/27 01:20:22;;;;;;;;;;;;;;;;;;4437411;32;20021;-75
2022/04/27 01:22:48;;;;;;;19.73;11.40;;;;;;;;;;4436258;32;19949;-75
2022/04/27 01:25:13;;;;;;;;;;;;;;;;;;4437628;32;20041;-75
2022/04/27 01:27:41;;;;;;;20.90;10.80;;;;;;;;;;4437620;32;20288;-75
2022/04/27 01:30:07;;;;;;;17.25;10.68;;;;;;;;;;4434634;32;20192;-76
2022/04/27 01:32:32;;;;;;;;;;;;;;;;;;4436420;32;20086;-76
2022/04/27 01:34:58;;;;;;;16.55;11.00;;;;;;;;;;4437807;32;20307;-76
2022/04/27 01:40:09;;;;;;;21.62;10.05;;;;;;;;;;4421170;32;19974;-76
2022/04/27 01:42:35;;;;;;;17.08;10.73;;;;;;;;;;4421549;32;20309;-76
2022/04/27 01:45:00;;;;;;;;;;;;;;;;;;4417946;32;20182;-76
2022/04/27 01:47:25;;;;;;;22.98;10.65;;;;;;;;;;4406508;32;19991;-76
2022/04/27 01:49:50;;;;;;;;;;;;;;;;;;4421651;32;20121;-76
2022/04/27 01:55:00;;;;;;;18.62;11.82;;;;;;;;;;4422664;32;20061;-75
2022/04/27 01:57:26;;;;;;;;;;;;;;;;;;4422032;32;20348;-75
2022/04/27 01:59:51;;;;;;;23.95;12.43;;;;;;;;;;4422373;32;19933;-75
2022/04/27 02:02:16;;;;;;;;;;;;;;;;;;4421233;32;20052;-76
2022/04/27 02:04:42;;;;;;;16.87;10.85;;;;;;;;;;4421024;32;19948;-76
2022/04/27 02:07:08;;;;;;;18.17;11.18;;;;;;;;;;4421001;32;20523;-76
2022/04/27 02:09:33;;;;;;;;;;;;;;;;;;4421410;32;20147;-76
2022/04/27 02:12:02;;;;;;;18.35;11.80;;;;;;;;;;4420939;32;20274;-76
2022/04/27 02:14:27;;;;;;;30.30;13.38;;;;;;;;;;4420822;32;20046;-76
2022/04/27 02:16:52;;;;;;;;;;;;;;;;;;4421450;32;20022;-76
2022/04/27 02:22:11;;;;;;;24.60;12.93;;;;;;;;;;4406180;32;20445;-76
2022/04/27 02:24:37;;;;;;;22.90;13.35;;;;;;;;;;4406402;32;20398;-75
2022/04/27 02:27:02;;;;;;;;;;;;;;;;;;4406749;32;20053;-75
2022/04/27 02:29:28;;;;;;;22.92;13.25;;;;;;;;;;4406402;32;20009;-75
2022/04/27 02:31:53;;;;;;;;;;;;;;;;;;4406137;32;20151;-75
2022/04/27 02:34:18;;;;;;;22.65;13.62;;;;;;;;;;4405476;32;19937;-75
2022/04/27 02:36:43;;;;;;;;;;;;;;;;;;4405818;32;20023;-75
2022/04/27 02:39:09;;;;;;;25.42;13.77;;;;;;;;;;4405576;32;19975;-75
2022/04/27 02:41:35;;;;;;;;;;;;;;;;;;4410692;32;20033;-75
2022/04/27 02:44:00;;;;;;;21.30;12.30;;;;;;;;;;4421129;32;20030;-75
2022/04/27 02:46:25;;;;;;;;;;;;;;;;;;4421372;32;20022;-75
2022/04/27 02:51:51;;;;;;;23.15;13.30;;;;;;;;;;4405613;32;20045;-76
2022/04/27 02:54:23;;;;;;;26.70;14.40;;;;;;;;;;4405350;32;20417;-76
2022/04/27 02:56:48;;;;;;;21.15;14.00;;;;;;;;;;4411854;32;20097;-75
2022/04/27 02:59:14;;;;;;;;;;;;;;;;;;4421210;32;20356;-75
2022/04/27 03:01:39;;;;;;;22.67;13.60;;;;;;;;;;4421353;32;19947;-75
2022/04/27 03:04:07;;;;;;;;;;;;;;;;;;4420261;32;20061;-75
2022/04/27 03:06:33;;;;;;;25.10;14.30;;;;;;;;;;4420286;32;19953;-75
2022/04/27 03:08:58;;;;;;;;;;;;;;;;;;4421193;32;20022;-75
2022/04/27 03:11:23;;;;;;;21.20;13.77;;;;;;;;;;4413310;32;19933;-75
2022/04/27 03:13:49;;;;;;;;;;;;;;;;;;4405660;32;20130;-75
2022/04/27 03:16:14;;;;;;;25.08;14.57;;;;;;;;;;4405918;32;19934;-76
2022/04/27 03:18:39;;;;;;;;;;;;;;;;;;4411438;32;20193;-75
2022/04/27 03:21:05;;;;;;;21.98;13.73;;;;;;;;;;4421258;32;19989;-76
2022/04/27 03:23:30;;;;;;;;;;;;;;;;;;4421223;32;20459;-76
2022/04/27 03:26:07;;;;;;;24.42;14.70;;;;;;;;;;4419386;32;19937;-76
2022/04/27 03:28:33;;;;;;;22.92;13.52;;;;;;;;;;4421787;32;20057;-76
2022/04/27 03:30:58;;;;;;;;;;;;;;;;;;4420037;32;20022;-75
2022/04/27 03:33:24;;;;;;;25.60;13.05;;;;;;;;;;4420120;32;19937;-76
2022/04/27 03:38:33;;;;;;;24.45;13.57;;;;;;;;;;4420269;32;20357;-75
2022/04/27 03:40:59;;;;;;;;;;;;;;;;;;4420739;32;20022;-75
2022/04/27 03:43:24;;;;;;;22.83;13.62;;;;;;;;;;4420232;32;19953;-77
2022/04/27 03:45:49;;;;;;;;;;;;;;;;;;4420752;32;20410;-76
2022/04/27 03:48:14;;;;;;;22.95;13.35;;;;;;;;;;4416282;32;19957;-76
2022/04/27 03:50:40;;;;;;;;;;;;;;;;;;4406104;32;20114;-76
2022/04/27 03:53:06;;;;;;;23.65;13.35;;;;;;;;;;4407044;32;19933;-73
2022/04/27 03:55:33;;;;;;;;;;;;;;;;;;4413845;32;20053;-75
2022/04/27 03:57:59;;;;;;;25.42;14.40;;;;;;;;;;4422091;32;19934;-76
2022/04/27 04:00:24;;;;;;;;;;;;;;;;;;4423585;32;20346;-76
2022/04/27 04:02:50;;;;;;;23.20;12.95;;;;;;;;;;4423102;32;19965;-75
2022/04/27 04:05:15;;;;;;;;;;;;;;;;;;4423492;32;20045;-76
2022/04/27 04:07:40;;;;;;;23.64;13.74;;;;;;;;;;4422807;32;20023;-76
2022/04/27 04:10:06;;;;;;;;;;;;;;;;;;4423955;32;20325;-75
2022/04/27 04:12:31;;;;;;;26.10;14.40;;;;;;;;;;4422625;32;19964;-76
2022/04/27 04:14:56;;;;;;;;;;;;;;;;;;4422268;32;20033;-76
2022/04/27 04:17:21;;;;;;;26.17;13.90;;;;;;;;;;4421487;32;19951;-76
2022/04/27 04:19:46;;;;;;;;;;;;;;;;;;4407772;32;20367;-75
2022/04/27 04:22:13;;;;;;;27.92;13.93;;;;;;;;;;4408287;32;19937;-76
2022/04/27 04:24:39;;;;;;;23.27;14.20;;;;;;;;;;4408839;32;20408;-76
2022/04/27 04:29:48;;;;;;;30.83;14.82;;;;;;;;;;4423140;32;19973;-76
2022/04/27 04:32:16;;;;;;;;;;;;;;;;;;4422884;32;20043;-76
2022/04/27 04:34:41;;;;;;;22.75;12.15;;;;;;;;;;4422267;32;20407;-75
2022/04/27 04:37:07;;;;;;;;;;;;;;;;;;4423403;32;20109;-76
2022/04/27 04:39:32;;;;;;;22.23;13.05;;;;;;;;;;4420661;32;20263;-76
2022/04/27 04:41:57;;;;;;;;;;;;;;;;;;4410680;32;20065;-76
2022/04/27 04:44:22;;;;;;;22.38;14.24;;;;;;;;;;4408030;32;19946;-76
2022/04/27 04:46:48;;;;;;;;;;;;;;;;;;4418309;32;20022;-76
2022/04/27 04:49:16;;;;;;;17.12;11.38;;;;;;;;;;4422568;32;19940;-75
2022/04/27 04:51:45;;;;;;;20.92;11.95;;;;;;;;;;4423124;32;20021;-75
2022/04/27 04:54:24;;;;;;;23.95;13.15;;;;;;;;;;4420854;32;20022;-75
2022/04/27 04:56:49;;;;;;;18.05;11.68;;;;;;;;;;4422684;32;20469;-75
2022/04/27 04:59:14;;;;;;;;;;;;;;;;;;4423295;32;20022;-76
2022/04/27 05:01:40;;;;;;;19.85;11.00;;;;;;;;;;4422032;32;19970;-75
2022/04/27 05:04:05;;;;;;;;;;;;;;;;;;4421992;32;20023;-76
2022/04/27 05:06:30;;;;;;;21.40;11.35;;;;;;;;;;4421681;32;20315;-75
2022/04/27 05:08:55;;;;;;;;;;;;;;;;;;4423168;32;20209;-74
2022/04/27 05:11:28;;;;;;;19.05;11.40;;;;;;;;;;4421795;32;19937;-77
2022/04/27 05:13:53;;;;;;;17.62;12.02;;;;;;;;;;4422515;32;20529;-76
2022/04/27 05:16:18;;;;;;;;;;;;;;;;;;4422459;32;20046;-75
2022/04/27 05:18:44;;;;;;;19.95;10.68;;;;;;;;;;4421311;32;19970;-76
2022/04/27 05:21:09;;;;;;;;;;;;;;;;;;4422074;32;20071;-76
2022/04/27 05:23:34;;;;;;;20.45;12.68;;;;;;;;;;4420178;32;19938;-77
2022/04/27 05:26:03;;;;;;;;;;;;;;;;;;4408093;32;20157;-76
2022/04/27 05:31:53;;;;;;;19.87;12.02;;;;;;;;;;4407045;32;19952;-73
2022/04/27 05:33:57;;;;;;;17.15;10.60;;;;;;;;;;4420312;32;20499;-76
2022/04/27 05:36:23;;;;;;;;;;;;;;;;;;4422261;32;20026;-73
2022/04/27 05:38:48;;;;;;;22.62;11.12;;;;;;;;;;4421151;32;19952;-75
2022/04/27 05:41:13;;;;;;;;;;;;;;;;;;4421480;32;20049;-77
2022/04/27 05:43:39;;;;;;;18.05;9.82;;;;;;;;;;4421656;32;20217;-75
2022/04/27 05:46:06;;;;;;;;;;;;;;;;;;4422220;32;20030;-76
2022/04/27 05:48:32;;;;;;;16.33;9.75;;;;;;;;;;4421484;32;19971;-76
2022/04/27 05:50:57;;;;;;;;;;;;;;;;;;4421700;32;20026;-76
2022/04/27 05:53:22;;;;;;;17.87;9.95;;;;;;;;;;4421831;32;19933;-76
2022/04/27 05:55:47;;;;;;;;;;;;;;;;;;4422000;32;20097;-76
2022/04/27 05:58:25;;;;;;;17.67;9.88;;;;;;;;;;4421566;32;20279;-76
2022/04/27 06:00:51;;;;;;;15.02;9.35;;;;;;;;;;4421669;32;20155;-75
2022/04/27 06:03:16;;;;;;;;;;;;;;;;;;4406910;32;20348;-75
2022/04/27 06:05:42;;;;;;;17.20;8.88;;;;;;;;;;4407429;32;19944;-74
2022/04/27 06:08:07;;;;;;;;;;;;;;;;;;4406591;32;20382;-77
2022/04/27 06:10:33;;;;;;;13.00;9.98;;;;;;;;;;4421205;32;19938;-75
2022/04/27 06:12:58;;;;;;;;;;;;;;;;;;4420984;32;20025;-76
2022/04/27 06:15:23;;;;;;;14.00;7.95;;;;;;;;;;4421229;32;20317;-76
2022/04/27 06:17:48;;;;;;;;;;;;;;;;;;4421580;32;20153;-76
2022/04/27 06:20:14;;;;;;;12.45;9.13;;;;;;;;;;4420877;32;19942;-75
2022/04/27 06:22:39;;;;;;;;;;;;;;;;;;4421509;32;20156;-76
2022/04/27 06:25:04;;;;;;;17.70;9.23;;;;;;;;;;4421253;32;19992;-75
2022/04/27 06:27:29;;;;;;;;;;;;;;;;;;4412008;32;20396;-76
2022/04/27 06:29:57;;;;;;;14.48;8.38;;;;;;;;;;4405616;32;19933;-75
2022/04/27 06:32:23;;;;;;;18.05;9.38;;;;;;;;;;4406348;32;20026;-76
2022/04/27 06:34:48;;;;;;;;;;;;;;;;;;4406236;32;20057;-76
2022/04/27 06:37:13;;;;;;;16.73;9.50;;;;;;;;;;4406476;32;19933;-76
2022/04/27 06:39:40;;;;;;;;;;;;;;;;;;4405603;32;20064;-76
2022/04/27 06:42:06;;;;;;;12.32;8.70;;;;;;;;;;4405358;32;19949;-75
2022/04/27 06:44:31;;;;;;;;;;;;;;;;;;4405715;32;20026;-76
2022/04/27 06:46:56;;;;;;;15.68;9.50;;;;;;;;;;4405634;32;19945;-76
2022/04/27 06:49:21;;;;;;;;;;;;;;;;;;4406016;32;20034;-76
2022/04/27 06:51:47;;;;;;;14.60;8.85;;;;;;;;;;4405966;32;19937;-76
2022/04/27 06:54:12;;;;;;;;;;;;;;;;;;4406759;32;20121;-75
2022/04/27 06:56:37;;;;;;;14.77;9.05;;;;;;;;;;4405737;32;19969;-76
2022/04/27 06:59:02;;;;;;;;;;;;;;;;;;4405487;32;20022;-75
2022/04/27 07:01:27;;;;;;;14.73;9.57;;;;;;;;;;4410055;32;19943;-76
2022/04/27 07:03:55;;;;;;;;;;;;;;;;;;4414864;32;20122;-76
2022/04/27 07:06:21;;;;;;;12.90;8.95;;;;;;;;;;4405819;32;19958;-77
2022/04/27 07:08:46;;;;;;;;;;;;;;;;;;4405908;32;20026;-75
2022/04/27 07:11:11;;;;;;;11.75;6.60;;;;;;;;;;4408806;32;20014;-76
2022/04/27 07:13:37;;;;;;;;;;;;;;;;;;4420032;32;20166;-77
2022/04/27 07:16:03;;;;;;;13.13;7.85;;;;;;;;;;4420826;32;19948;-76
2022/04/27 07:18:29;;;;;;;14.55;6.35;;;;;;;;;;4418766;32;20385;-78
2022/04/27 07:20:54;;;;;;;;;;;;;;;;;;4407515;32;20140;-75
2022/04/27 07:23:19;;;;;;;12.70;6.43;;;;;;;;;;4411587;32;20327;-75
2022/04/27 07:25:44;;;;;;;;;;;;;;;;;;4424080;32;20038;-76
2022/04/27 07:28:10;;;;;;;10.00;4.77;;;;;;;;;;4423685;32;19957;-76
2022/04/27 07:30:35;;;;;;;;;;;;;;;;;;4422716;32;20118;-77
2022/04/27 07:33:00;;;;;;;5.95;4.22;;;;;;;;;;4408595;32;19938;-76
2022/04/27 07:35:25;;;;;;;;;;;;;;;;;;4409359;32;20045;-76
2022/04/27 07:37:53;;;;;;;4.62;2.67;;;;;;;;;;4408547;32;19999;-76
2022/04/27 07:40:18;;;;;;;4.60;2.20;;;;;;;;;;4407915;32;20046;-75
2022/04/27 07:42:43;;;;;;;6.20;1.75;;;;;;;;;;4408683;32;20405;-77
2022/04/27 07:45:09;;;;;;;;;;;;;;;;;;4408919;32;20026;-74
2022/04/27 07:47:37;;;;;;;5.10;3.12;;;;;;;;;;4437532;32;20249;-74
2022/04/27 07:50:03;;;;;;;5.37;2.37;;;;;;;;;;4415483;32;20046;-74
2022/04/27 07:52:28;;;;;;;6.68;3.05;;;;;;;;;;4407840;32;20094;-75
2022/04/27 07:54:53;;;;;;;6.03;3.67;;;;;;;;;;4407776;32;20038;-74
2022/04/27 07:57:18;;;;;;;;;;;;;;;;;;4408826;32;20080;-74
2022/04/27 07:59:44;;;;;;;9.40;4.82;;;;;;;;;;4407298;32;20028;-74
2022/04/27 08:02:09;;;;;;;5.90;4.20;;;;;;;;;;4407449;32;20090;-75
2022/04/27 08:04:34;;;;;;;;;;;;;;;;;;4407441;32;20383;-75
2022/04/27 08:06:59;;;;;;;6.28;4.43;;;;;;;;;;4407588;32;19997;-75
2022/04/27 08:09:24;;;;;;;;;;;;;;;;;;4408153;32;20164;-74
2022/04/27 08:11:51;;;;;;;12.05;4.87;;;;;;;;;;4408850;32;19933;-75
2022/04/27 08:14:16;;;;;;;10.60;5.03;;;;;;;;;;4407649;32;20045;-75
2022/04/27 08:16:41;;;;;;;6.72;4.78;;;;;;;;;;4407933;32;20397;-74
2022/04/27 08:19:06;;;;;;;;;;;;;;;;;;4418670;32;20038;-75
2022/04/27 08:21:32;;;;;;;8.30;3.30;;;;;;;;;;4407308;32;19933;-75
2022/04/27 08:24:08;;;;;;;;;;;;;;;;;;4407976;32;20099;-76
2022/04/27 08:26:34;;;;;;;3.80;2.30;;;;;;;;;;4408076;32;20350;-75
2022/04/27 08:28:59;;;;;;;6.93;3.35;;;;;;;;;;4422229;32;20022;-74
2022/04/27 08:31:24;;;;;;;;;;;;;;;;;;4415485;32;20039;-75
2022/04/27 08:33:49;;;;;;;7.25;2.80;;;;;;;;;;4407556;32;19952;-73
2022/04/27 08:36:15;;;;;;;;;;;;;;;;;;4409540;32;20123;-74
2022/04/27 08:38:40;;;;;;;5.68;2.95;;;;;;;;;;4421894;32;19972;-74
2022/04/27 08:41:06;;;;;;;;;;;;;;;;;;4423543;32;20029;-74
2022/04/27 08:43:38;;;;;;;5.82;2.62;;;;;;;;;;4422242;32;19969;-74
2022/04/27 08:46:04;;;;;;;5.05;2.90;;;;;;;;;;4422691;32;20023;-75
2022/04/27 08:48:30;;;;;;;6.12;2.75;;;;;;;;;;4422139;32;20439;-75
2022/04/27 08:50:56;;;;;;;3.87;2.20;;;;;;;;;;4415570;32;20031;-75
2022/04/27 08:53:22;;;;;;;6.07;3.12;;;;;;;;;;4406660;32;20152;-73
2022/04/27 08:55:55;;;;;;;4.90;2.28;;;;;;;;;;4406331;32;20068;-74
2022/04/27 08:58:22;;;;;;;3.87;2.50;;;;;;;;;;4407498;32;20334;-75
2022/04/27 09:00:47;;;;;;;4.20;2.25;;;;;;;;;;4408164;32;20391;-74
2022/04/27 09:03:32;;;;;;;4.68;2.55;;;;;;;;;;4422247;32;20026;-75
2022/04/27 09:05:58;;;;;;;6.68;3.03;;;;;;;;;;4422177;32;20046;-74
2022/04/27 09:08:25;;;;;;;4.95;2.50;;;;;;;;;;4422289;32;20124;-74
2022/04/27 09:11:12;;;;;;;5.12;2.85;;;;;;;;;;4421505;32;20056;-74
2022/04/27 09:13:38;;;;;;;3.70;2.65;;;;;;;;;;4417333;32;20464;-73
2022/04/27 09:16:03;;;;;;;6.60;3.15;;;;;;;;;;4420062;32;20075;-75
2022/04/27 09:21:13;;;;;;;4.93;3.17;;;;;;;;;;4413175;32;19970;-76
2022/04/27 09:23:40;;;;;;;4.35;2.70;;;;;;;;;;4408649;32;20420;-71
2022/04/27 09:26:19;;;;;;;6.95;3.53;;;;;;;;;;4412252;32;20064;-75
2022/04/27 09:28:54;;;;;;;8.05;4.32;;;;;;;;;;4415977;32;20031;-74
2022/04/27 09:31:26;;;;;;;6.85;4.05;;;;;;;;;;4421549;32;20060;-75
2022/04/27 09:33:56;;;;;;;6.22;4.22;;;;;;;;;;4407365;32;20111;-75
2022/04/27 09:36:23;;;;;;;7.05;3.60;;;;;;;;;;4407254;32;20061;-75
2022/04/27 09:38:52;;;;;;;7.70;4.43;;;;;;;;;;4406169;32;20046;-76
2022/04/27 09:44:35;;;;;;;7.07;4.20;;;;;;;;;;4403738;32;20022;-74
2022/04/27 09:47:04;;;;;;;7.18;4.40;;;;;;;;;;4419182;32;20052;-75
2022/04/27 09:49:32;;;;;;;7.40;4.15;;;;;;;;;;4415542;32;20138;-76
2022/04/27 09:52:00;;;;;;;7.00;4.53;;;;;;;;;;4406137;32;20065;-74
2022/04/27 09:54:28;;;;;;;7.72;4.32;;;;;;;;;;4406715;32;20083;-75
2022/04/27 09:56:58;;;;;;;8.38;4.70;;;;;;;;;;4418003;32;20053;-76
2022/04/27 09:59:27;;;;;;;6.00;4.18;;;;;;;;;;4411530;32;20313;-74
2022/04/27 10:02:00;;;;;;;10.35;4.55;;;;;;;;;;4415963;32;20403;-75
2022/04/27 10:04:28;;;;;;;6.47;4.45;;;;;;;;;;4418192;32;20117;-75
2022/04/27 10:06:56;;;;;;;6.22;3.47;;;;;;;;;;4421732;32;20033;-77
2022/04/27 10:09:21;;;;;;;4.85;2.95;;;;;;;;;;4421126;32;20555;-75
2022/04/27 10:11:47;;;;;;;6.37;3.70;;;;;;;;;;4421102;32;20058;-74
2022/04/27 10:14:12;;;;;;;5.62;3.37;;;;;;;;;;4420561;32;20093;-76
2022/04/27 10:16:38;;;;;;;9.55;3.70;;;;;;;;;;4420222;32;20464;-75
2022/04/27 10:19:03;;;;;;;;;;;;;;;;;;4419409;32;20030;-75
2022/04/27 10:21:56;;;;;;;10.18;3.10;;;;;;;;;;4421461;32;19941;-74
2022/04/27 10:24:33;;;;;;;12.73;3.50;;;;;;;;;;4421088;32;20187;-75
2022/04/27 10:27:19;;;;;;;10.15;3.22;;;;;;;;;;4406026;32;20022;-74
2022/04/27 10:30:05;;;;;;;7.90;3.65;;;;;;;;;;4405639;32;20435;-74
2022/04/27 10:32:36;;;;;;;6.45;3.42;;;;;;;;;;4405429;32;20027;-76
2022/04/27 10:35:17;;;;;;;6.20;3.67;;;;;;;;;;4413932;32;20410;-74
2022/04/27 10:37:59;;;;;;;5.70;3.47;;;;;;;;;;4420535;32;20079;-75
2022/04/27 10:40:25;;;;;;;6.00;3.37;;;;;;;;;;4420994;32;20030;-75
2022/04/27 10:42:50;;;;;;;6.60;3.75;;;;;;;;;;4419870;32;20431;-75
2022/04/27 10:45:15;;;;;;;;;;;;;;;;;;4420573;32;20030;-74
2022/04/27 10:47:41;;;;;;;6.32;3.70;;;;;;;;;;4421368;32;19987;-74
2022/04/27 10:50:10;;;;;;;7.87;3.67;;;;;;;;;;4417838;32;20083;-73
2022/04/27 10:52:42;;;;;;;5.12;3.45;;;;;;;;;;4421494;32;20442;-76
2022/04/27 10:55:28;;;;;;;4.70;2.92;;;;;;;;;;4419583;32;20022;-76
2022/04/27 10:58:10;;;;;;;4.62;3.30;;;;;;;;;;4413573;32;20081;-75
2022/04/27 11:00:56;;;;;;;5.90;3.55;;;;;;;;;;4405320;32;20045;-75
2022/04/27 11:03:21;;;;;;;8.10;3.40;;;;;;;;;;4376835;32;20339;-74
2022/04/27 11:05:47;;;;;;;5.30;3.53;;;;;;;;;;4420112;32;20034;-75
2022/04/27 11:08:32;;;;;;;5.85;3.33;;;;;;;;;;4420351;32;20309;-75
2022/04/27 11:11:01;;;;;;;7.53;3.42;;;;;;;;;;4396204;32;20029;-75
2022/04/27 11:13:29;;;;;;;7.43;3.60;;;;;;;;;;4417395;32;20041;-74
2022/04/27 11:16:05;;;;;;;6.32;3.80;;;;;;;;;;4418983;32;20022;-74
2022/04/27 11:18:47;;;;;;;6.05;3.05;;;;;;;;;;4419253;32;20057;-75
2022/04/27 11:21:13;;;;;;;6.90;3.95;;;;;;;;;;4420817;32;20026;-75
2022/04/27 11:23:39;;;;;;;5.55;3.30;;;;;;;;;;4420636;32;20463;-75
2022/04/27 11:26:06;;;;;;;7.18;2.92;;;;;;;;;;4419765;32;20026;-75
2022/04/27 11:28:31;;;;;;;5.43;3.17;;;;;;;;;;4410789;32;20156;-74
2022/04/27 11:30:57;;;;;;;7.82;3.55;;;;;;;;;;4405263;32;20019;-75
2022/04/27 11:33:22;;;;;;;6.07;2.97;;;;;;;;;;4408727;32;20386;-74
2022/04/27 11:35:49;;;;;;;7.00;3.20;;;;;;;;;;4420051;32;20484;-75
2022/04/27 11:38:18;;;;;;;9.43;3.50;;;;;;;;;;4411203;32;20082;-72
2022/04/27 11:40:44;;;;;;;7.00;3.65;;;;;;;;;;4416179;32;20372;-74
2022/04/27 11:43:09;;;;;;;11.12;3.53;;;;;;;;;;4419775;32;20056;-73
2022/04/27 11:45:35;;;;;;;10.82;3.78;;;;;;;;;;4406030;32;20094;-75
2022/04/27 11:48:01;;;;;;;7.22;3.65;;;;;;;;;;4404881;32;20034;-74
2022/04/27 11:50:29;;;;;;;7.78;3.80;;;;;;;;;;4405276;32;20365;-72
2022/04/27 11:52:57;;;;;;;6.62;3.55;;;;;;;;;;4406034;32;20351;-74
2022/04/27 11:55:22;;;;;;;9.82;4.40;;;;;;;;;;4404821;32;20026;-74
2022/04/27 11:57:49;;;;;;;5.50;3.90;;;;;;;;;;4405441;32;20418;-74
2022/04/27 12:00:25;;;;;;;11.55;3.70;;;;;;;;;;4404419;32;20080;-74
2022/04/27 12:02:50;;;;;;;8.35;4.05;;;;;;;;;;4405942;32;20036;-73
2022/04/27 12:05:15;;;;;;;;;;;;;;;;;;4404440;32;20022;-74
2022/04/27 12:07:42;;;;;;;6.20;3.40;;;;;;;;;;4411829;32;20015;-73
2022/04/27 12:10:10;;;;;;;11.88;4.10;;;;;;;;;;4414861;32;20034;-73
2022/04/27 12:12:37;;;;;;;7.90;3.40;;;;;;;;;;4406568;32;20026;-74
2022/04/27 12:15:05;;;;;;;7.43;3.00;;;;;;;;;;4415524;32;20403;-74
2022/04/27 12:17:42;;;;;;;9.23;4.30;;;;;;;;;;4422894;32;20034;-74
2022/04/27 12:20:08;;;;;;;7.30;3.50;;;;;;;;;;4418065;32;20022;-74
2022/04/27 12:22:33;;;;;;;6.25;4.07;;;;;;;;;;4422322;32;20034;-75
2022/04/27 12:25:05;;;;;;;7.75;3.40;;;;;;;;;;4407500;32;20070;-75
2022/04/27 12:27:30;;;;;;;6.68;3.37;;;;;;;;;;4406482;32;20093;-75
2022/04/27 12:30:05;;;;;;;5.75;3.47;;;;;;;;;;4406978;32;20061;-74
2022/04/27 12:32:32;;;;;;;12.98;3.92;;;;;;;;;;4407301;32;20352;-74
2022/04/27 12:37:46;;;;;;;6.45;3.58;;;;;;;;;;4423280;32;20454;-75
2022/04/27 12:40:15;;;;;;;12.10;5.18;;;;;;;;;;4415264;32;20038;-74
2022/04/27 12:42:59;;;;;;;7.50;3.45;;;;;;;;;;4414233;32;20065;-74
2022/04/27 12:45:25;;;;;;;7.68;3.62;;;;;;;;;;4406834;32;20041;-75
2022/04/27 12:48:26;;;;;;;8.90;4.57;;;;;;;;;;4419463;32;20056;-75
2022/04/27 12:50:51;;;;;;;11.05;3.78;;;;;;;;;;4422051;32;20033;-74
2022/04/27 12:53:18;;;;;;;9.45;3.45;;;;;;;;;;4422078;32;20388;-75
2022/04/27 12:55:59;;;;;;;12.60;4.28;;;;;;;;;;4422192;32;20027;-75
2022/04/27 12:58:24;;;;;;;7.60;3.78;;;;;;;;;;4422484;32;20026;-76
2022/04/27 13:00:51;;;;;;;11.10;3.87;;;;;;;;;;4422151;32;20056;-75
2022/04/27 13:03:16;;;;;;;11.48;3.80;;;;;;;;;;4420437;32;20019;-76
2022/04/27 13:05:42;;;;;;;9.48;4.35;;;;;;;;;;4413362;32;20069;-76
2022/04/27 13:08:08;;;;;;;11.18;4.05;;;;;;;;;;4418121;32;20488;-75
2022/04/27 13:13:18;;;;;;;7.53;3.92;;;;;;;;;;4418880;32;20066;-77
2022/04/27 13:15:43;;;;;;;14.48;4.25;;;;;;;;;;4417575;32;20034;-74
2022/04/27 13:18:09;;;;;;;10.10;4.32;;;;;;;;;;4419509;32;20325;-75
2022/04/27 13:20:34;;;;;;;10.85;3.97;;;;;;;;;;4405215;32;20387;-75
2022/04/27 13:22:59;;;;;;;7.93;3.60;;;;;;;;;;4404769;32;20097;-74
2022/04/27 13:25:25;;;;;;;13.05;5.03;;;;;;;;;;4405555;32;20443;-75
2022/04/27 13:27:51;;;;;;;12.30;4.55;;;;;;;;;;4406773;32;20026;-75
2022/04/27 13:30:17;;;;;;;12.50;4.45;;;;;;;;;;4407242;32;20038;-74
2022/04/27 13:32:44;;;;;;;10.32;3.97;;;;;;;;;;4421374;32;20083;-75
2022/04/27 13:35:09;;;;;;;14.80;4.43;;;;;;;;;;4416124;32;20022;-74
2022/04/27 13:37:35;;;;;;;9.70;3.60;;;;;;;;;;4421596;32;20366;-75
2022/04/27 13:40:00;;;;;;;12.25;4.43;;;;;;;;;;4419891;32;20068;-74
2022/04/27 13:42:26;;;;;;;11.88;3.70;;;;;;;;;;4420673;32;20026;-74
2022/04/27 13:44:54;;;;;;;9.90;4.53;;;;;;;;;;4421270;32;20434;-77
2022/04/27 13:47:20;;;;;;;9.30;3.60;;;;;;;;;;4420755;32;20026;-75
2022/04/27 13:49:46;;;;;;;11.60;4.43;;;;;;;;;;4421414;32;20045;-75
2022/04/27 13:52:11;;;;;;;12.20;4.87;;;;;;;;;;4421754;32;20062;-74
2022/04/27 13:54:37;;;;;;;8.93;3.92;;;;;;;;;;4421187;32;20057;-75
2022/04/27 13:57:02;;;;;;;11.57;4.10;;;;;;;;;;4421266;32;20093;-73
2022/04/27 13:59:28;;;;;;;10.13;3.78;;;;;;;;;;4421576;32;20061;-75
2022/04/27 14:01:53;;;;;;;10.32;4.00;;;;;;;;;;4420954;32;20052;-76
2022/04/27 14:04:19;;;;;;;10.05;4.50;;;;;;;;;;4421187;32;20088;-75
2022/04/27 14:06:45;;;;;;;6.95;3.20;;;;;;;;;;4411936;32;20035;-75
2022/04/27 14:09:11;;;;;;;10.25;3.83;;;;;;;;;;4406952;32;20038;-75
2022/04/27 14:14:20;;;;;;;8.25;3.37;;;;;;;;;;4405582;32;20056;-76
2022/04/27 14:19:30;;;;;;;9.20;3.53;;;;;;;;;;4421404;32;20040;-76
2022/04/27 14:21:57;;;;;;;12.80;4.22;;;;;;;;;;4420928;32;20053;-77
2022/04/27 14:24:23;;;;;;;11.38;3.83;;;;;;;;;;4420322;32;20022;-74
2022/04/27 14:26:48;;;;;;;17.08;3.78;;;;;;;;;;4419232;32;20056;-74
2022/04/27 14:29:13;;;;;;;10.45;3.90;;;;;;;;;;4420377;32;20021;-74
2022/04/27 14:31:39;;;;;;;11.70;4.15;;;;;;;;;;4405616;32;20026;-76
2022/04/27 14:34:04;;;;;;;12.77;3.70;;;;;;;;;;4404502;32;20078;-73
2022/04/27 14:36:30;;;;;;;11.48;4.30;;;;;;;;;;4405748;32;20082;-74
2022/04/27 14:38:55;;;;;;;12.63;3.30;;;;;;;;;;4403571;32;20038;-70
2022/04/27 14:41:20;;;;;;;9.68;3.55;;;;;;;;;;4406017;32;20034;-75
2022/04/27 14:43:46;;;;;;;10.15;3.55;;;;;;;;;;4405289;32;20046;-77
2022/04/27 14:46:11;;;;;;;9.80;3.95;;;;;;;;;;4420869;32;20073;-75
2022/04/27 14:48:40;;;;;;;11.57;3.45;;;;;;;;;;4419060;32;20037;-76
2022/04/27 14:51:06;;;;;;;8.98;3.80;;;;;;;;;;4420968;32;20022;-74
2022/04/27 14:53:32;;;;;;;6.35;4.10;;;;;;;;;;4420336;32;20084;-74
2022/04/27 14:55:57;;;;;;;13.60;3.75;;;;;;;;;;4420920;32;20038;-74
2022/04/27 14:58:22;;;;;;;11.70;4.18;;;;;;;;;;4419553;32;20026;-75
2022/04/27 15:00:48;;;;;;;14.23;4.63;;;;;;;;;;4417200;32;20026;-76
2022/04/27 15:03:13;;;;;;;8.38;3.55;;;;;;;;;;4418797;32;20114;-75
2022/04/27 15:05:39;;;;;;;15.20;4.50;;;;;;;;;;4403937;32;20416;-75
2022/04/27 15:08:04;;;;;;;10.07;3.62;;;;;;;;;;4404451;32;20140;-74
2022/04/27 15:10:30;;;;;;;11.30;3.75;;;;;;;;;;4415589;32;20029;-74
2022/04/27 15:12:55;;;;;;;10.68;3.58;;;;;;;;;;4414711;32;20128;-75
2022/04/27 15:15:20;;;;;;;10.18;4.35;;;;;;;;;;4405396;32;20372;-77
2022/04/27 15:17:46;;;;;;;16.25;4.10;;;;;;;;;;4404965;32;20399;-75
2022/04/27 15:22:55;;;;;;;8.00;3.97;;;;;;;;;;4414473;32;20045;-76
2022/04/27 15:25:21;;;;;;;11.77;3.87;;;;;;;;;;4419724;32;20332;-76
2022/04/27 15:27:47;;;;;;;7.15;3.70;;;;;;;;;;4418108;32;20029;-74
2022/04/27 15:30:23;;;;;;;7.78;3.58;;;;;;;;;;4420592;32;20052;-75
2022/04/27 15:32:48;;;;;;;7.82;3.87;;;;;;;;;;4419754;32;20274;-75
2022/04/27 15:35:13;;;;;;;14.40;5.53;;;;;;;;;;4402908;32;20034;-76
2022/04/27 15:37:38;;;;;;;10.25;3.85;;;;;;;;;;4402745;32;20056;-75